Khankala Air Base
URMG : now visible

Airfield :











YOU CAN JOIN US ON...

 
LOGIN :

Register | Disclaimer

   EN    FR    IT 

 









Legend :    VFR   Marginal VFR   IFR   Intensive IFR   Very Intensive IFR
Visi :
Ceiling :
>= 8 km
>= 3000ft
5 to 8 km
1000 to 3000 ft
1500m to 5 km
500 to 1000 ft
800 to 1500m
200 to 500 ft
< 800m
< 200 ft
Symbols :   Thunderstorms  Fog  Heavy snow  Heavy precipitations  Wind > 20 kt






- Airport Elevation : 548 ft


URMG - Khankala Air Base

CURRENT METAR :
  • 071000Z 35005MPS 310V040 CAVOK 11/M05 Q1030 R26/090070 NOSIG RMK QFE757/1010

EXPIRED METARs :
  • 070930Z 32005MPS 260V030 CAVOK 11/M05 Q1030 R26/090070 NOSIG RMK QFE757/1010
  • 070900Z 35005MPS 300V060 CAVOK 11/M07 Q1030 R26/090070 NOSIG RMK QFE758/1010
  • 070830Z 35004MPS 300V060 CAVOK 10/M07 Q1030 R26/090070 NOSIG RMK QFE758/1011
  • 070800Z 01005MPS 330V030 CAVOK 10/M05 Q1031 R26/090070 NOSIG RMK QFE758/1011
  • 070730Z 32003MPS CAVOK 09/M05 Q1031 R26/090070 NOSIG RMK QFE758/1011

TAF TAF URMG
Valid from the 07 at 09:00 until the 07 at 18:00 UTC


070800Z 0709/0718 36003G08MPS CAVOK
TEMPO 0709/0715 01005G12MPS



MET'MAP, your aeronautical weather chart ! - Copyright ORBIFLY December 2007 - Disclaimer

ORBIFLY MET'MAP TEAM :

Programming & Development : Alexandra Zaïnal
Concept & original design : Baudouin d'Aumeries
Assistance for programming : Marc-Olivier Méhu
Technical & hardware support : Manuel Goepfert

Contact : metmap@orbifly.com




SOURCES & CREDITS :

   NOAA       Earth
Advisory